Terminal Aerodrome Forecast
Issued by NWS

Home | Current Version | Previous Version | Text Only | Print | Product List | Glossary On
Versions: 1 2 3 4 5 6 7 8 9 10 11 12
747
FTUS45 KRIW 260526
TAFBPI
TAF
KBPI 260526Z 2606/2706 VRB06KT P6SM SCT080
     FM261100 07008KT P6SM VCSH BKN070
     FM261500 VRB06KT 5SM -RA OVC025
     FM262000 31015G25KT P6SM VCSH SCT040 BKN060
     FM270100 34009KT P6SM BKN060=

USA.gov is the U.S. government's official web portal to all federal, state and local government web resources and services.